sensor_id;sensor_type;location;lat;lon;timestamp;P1;durP1;ratioP1;P2;durP2;ratioP2
21183;SDS011;18176;49.502;11.754;2023-05-02T00:03:52;20.30;;;14.20;;
21183;SDS011;18176;49.502;11.754;2023-05-02T00:07:52;18.77;;;12.90;;
21183;SDS011;18176;49.502;11.754;2023-05-02T00:11:53;18.47;;;13.43;;
21183;SDS011;18176;49.502;11.754;2023-05-02T00:15:55;17.97;;;13.47;;
21183;SDS011;18176;49.502;11.754;2023-05-02T00:19:55;17.27;;;12.97;;
21183;SDS011;18176;49.502;11.754;2023-05-02T00:23:56;17.23;;;12.40;;
21183;SDS011;18176;49.502;11.754;2023-05-02T00:27:57;20.57;;;14.23;;
21183;SDS011;18176;49.502;11.754;2023-05-02T00:32:00;21.20;;;14.73;;
21183;SDS011;18176;49.502;11.754;2023-05-02T00:36:00;22.40;;;14.60;;
21183;SDS011;18176;49.502;11.754;2023-05-02T00:40:00;20.80;;;13.33;;
21183;SDS011;18176;49.502;11.754;2023-05-02T00:44:01;19.97;;;12.87;;
21183;SDS011;18176;49.502;11.754;2023-05-02T00:48:05;19.03;;;13.33;;
21183;SDS011;18176;49.502;11.754;2023-05-02T00:52:06;19.47;;;12.90;;
21183;SDS011;18176;49.502;11.754;2023-05-02T00:56:07;18.37;;;13.33;;
21183;SDS011;18176;49.502;11.754;2023-05-02T01:00:08;22.87;;;13.20;;
21183;SDS011;18176;49.502;11.754;2023-05-02T01:04:20;19.60;;;14.53;;
21183;SDS011;18176;49.502;11.754;2023-05-02T01:08:34;20.83;;;14.50;;
21183;SDS011;18176;49.502;11.754;2023-05-02T01:12:52;19.83;;;13.50;;
21183;SDS011;18176;49.502;11.754;2023-05-02T01:17:00;18.53;;;13.43;;
21183;SDS011;18176;49.502;11.754;2023-05-02T01:21:09;16.83;;;12.90;;
21183;SDS011;18176;49.502;11.754;2023-05-02T01:25:13;18.17;;;13.47;;
21183;SDS011;18176;49.502;11.754;2023-05-02T01:29:28;16.97;;;12.93;;
21183;SDS011;18176;49.502;11.754;2023-05-02T01:33:29;19.50;;;13.47;;
21183;SDS011;18176;49.502;11.754;2023-05-02T01:37:34;19.40;;;13.43;;
21183;SDS011;18176;49.502;11.754;2023-05-02T01:41:37;20.80;;;13.47;;
21183;SDS011;18176;49.502;11.754;2023-05-02T01:45:43;20.47;;;13.73;;
21183;SDS011;18176;49.502;11.754;2023-05-02T01:49:47;17.60;;;13.00;;
21183;SDS011;18176;49.502;11.754;2023-05-02T01:53:48;17.43;;;12.23;;
21183;SDS011;18176;49.502;11.754;2023-05-02T01:57:50;17.53;;;12.70;;
21183;SDS011;18176;49.502;11.754;2023-05-02T02:01:56;20.10;;;13.30;;
21183;SDS011;18176;49.502;11.754;2023-05-02T02:05:59;21.30;;;13.77;;
21183;SDS011;18176;49.502;11.754;2023-05-02T02:10:01;19.63;;;14.07;;
21183;SDS011;18176;49.502;11.754;2023-05-02T02:14:04;19.77;;;13.77;;
21183;SDS011;18176;49.502;11.754;2023-05-02T02:18:13;20.50;;;13.13;;
21183;SDS011;18176;49.502;11.754;2023-05-02T02:22:20;17.17;;;11.77;;
21183;SDS011;18176;49.502;11.754;2023-05-02T02:26:26;17.07;;;11.83;;
21183;SDS011;18176;49.502;11.754;2023-05-02T02:30:26;17.00;;;11.70;;
21183;SDS011;18176;49.502;11.754;2023-05-02T02:34:29;17.93;;;12.43;;
21183;SDS011;18176;49.502;11.754;2023-05-02T02:38:31;19.23;;;13.47;;
21183;SDS011;18176;49.502;11.754;2023-05-02T02:42:42;17.70;;;12.50;;
21183;SDS011;18176;49.502;11.754;2023-05-02T02:46:57;18.03;;;13.27;;
21183;SDS011;18176;49.502;11.754;2023-05-02T02:51:09;17.93;;;13.97;;
21183;SDS011;18176;49.502;11.754;2023-05-02T02:55:19;18.77;;;13.43;;
21183;SDS011;18176;49.502;11.754;2023-05-02T02:59:33;18.40;;;13.27;;
21183;SDS011;18176;49.502;11.754;2023-05-02T03:03:41;20.03;;;13.33;;
21183;SDS011;18176;49.502;11.754;2023-05-02T03:07:46;18.90;;;13.77;;
21183;SDS011;18176;49.502;11.754;2023-05-02T03:11:49;16.47;;;12.20;;
21183;SDS011;18176;49.502;11.754;2023-05-02T03:20:38;15.93;;;11.93;;
21183;SDS011;18176;49.502;11.754;2023-05-02T03:24:41;19.67;;;12.87;;
21183;SDS011;18176;49.502;11.754;2023-05-02T03:28:43;17.47;;;12.43;;
21183;SDS011;18176;49.502;11.754;2023-05-02T03:32:51;16.43;;;12.00;;
21183;SDS011;18176;49.502;11.754;2023-05-02T03:36:51;17.30;;;12.20;;
21183;SDS011;18176;49.502;11.754;2023-05-02T03:40:54;16.63;;;12.53;;
21183;SDS011;18176;49.502;11.754;2023-05-02T03:44:56;19.57;;;12.93;;
21183;SDS011;18176;49.502;11.754;2023-05-02T03:48:57;22.13;;;13.60;;
21183;SDS011;18176;49.502;11.754;2023-05-02T03:52:57;21.63;;;13.67;;
21183;SDS011;18176;49.502;11.754;2023-05-02T03:57:10;21.33;;;13.60;;
21183;SDS011;18176;49.502;11.754;2023-05-02T04:01:14;28.17;;;14.50;;
21183;SDS011;18176;49.502;11.754;2023-05-02T04:05:18;25.37;;;15.73;;
21183;SDS011;18176;49.502;11.754;2023-05-02T04:09:19;28.27;;;14.43;;
21183;SDS011;18176;49.502;11.754;2023-05-02T04:13:28;25.67;;;15.93;;
21183;SDS011;18176;49.502;11.754;2023-05-02T04:17:29;27.03;;;15.77;;
21183;SDS011;18176;49.502;11.754;2023-05-02T04:21:30;24.70;;;15.93;;
21183;SDS011;18176;49.502;11.754;2023-05-02T04:25:32;20.23;;;14.60;;
21183;SDS011;18176;49.502;11.754;2023-05-02T04:29:35;23.43;;;15.30;;
21183;SDS011;18176;49.502;11.754;2023-05-02T04:33:37;21.17;;;15.00;;
21183;SDS011;18176;49.502;11.754;2023-05-02T04:37:38;20.40;;;14.17;;
21183;SDS011;18176;49.502;11.754;2023-05-02T04:41:38;20.90;;;14.93;;
21183;SDS011;18176;49.502;11.754;2023-05-02T04:45:41;21.43;;;14.63;;
21183;SDS011;18176;49.502;11.754;2023-05-02T04:49:49;22.97;;;15.73;;
21183;SDS011;18176;49.502;11.754;2023-05-02T04:53:49;21.63;;;15.40;;
21183;SDS011;18176;49.502;11.754;2023-05-02T04:57:50;27.83;;;16.60;;
21183;SDS011;18176;49.502;11.754;2023-05-02T05:01:53;29.70;;;15.70;;
21183;SDS011;18176;49.502;11.754;2023-05-02T05:05:54;21.43;;;15.33;;
21183;SDS011;18176;49.502;11.754;2023-05-02T05:09:55;27.80;;;15.20;;
21183;SDS011;18176;49.502;11.754;2023-05-02T05:14:00;17.80;;;13.97;;
21183;SDS011;18176;49.502;11.754;2023-05-02T05:18:06;20.77;;;14.67;;
21183;SDS011;18176;49.502;11.754;2023-05-02T05:22:06;22.13;;;15.87;;
21183;SDS011;18176;49.502;11.754;2023-05-02T05:26:08;19.70;;;15.13;;
21183;SDS011;18176;49.502;11.754;2023-05-02T05:30:11;21.57;;;15.67;;
21183;SDS011;18176;49.502;11.754;2023-05-02T05:34:15;18.13;;;13.70;;
21183;SDS011;18176;49.502;11.754;2023-05-02T05:38:16;20.33;;;14.93;;
21183;SDS011;18176;49.502;11.754;2023-05-02T05:42:17;17.90;;;13.73;;
21183;SDS011;18176;49.502;11.754;2023-05-02T05:46:22;15.30;;;12.30;;
21183;SDS011;18176;49.502;11.754;2023-05-02T05:50:25;17.20;;;12.33;;
21183;SDS011;18176;49.502;11.754;2023-05-02T05:54:26;19.93;;;12.87;;
21183;SDS011;18176;49.502;11.754;2023-05-02T05:58:28;16.67;;;12.43;;
21183;SDS011;18176;49.502;11.754;2023-05-02T06:02:28;14.60;;;11.57;;
21183;SDS011;18176;49.502;11.754;2023-05-02T06:06:32;16.07;;;11.80;;
21183;SDS011;18176;49.502;11.754;2023-05-02T06:10:33;14.23;;;12.07;;
21183;SDS011;18176;49.502;11.754;2023-05-02T06:14:33;15.33;;;11.73;;
21183;SDS011;18176;49.502;11.754;2023-05-02T06:18:34;14.07;;;11.47;;
21183;SDS011;18176;49.502;11.754;2023-05-02T06:22:38;13.77;;;10.90;;
21183;SDS011;18176;49.502;11.754;2023-05-02T06:26:38;15.33;;;11.30;;
21183;SDS011;18176;49.502;11.754;2023-05-02T06:30:38;15.27;;;11.60;;
21183;SDS011;18176;49.502;11.754;2023-05-02T06:34:39;15.93;;;11.37;;
21183;SDS011;18176;49.502;11.754;2023-05-02T06:38:42;13.67;;;10.17;;
21183;SDS011;18176;49.502;11.754;2023-05-02T06:42:42;12.27;;;10.00;;
21183;SDS011;18176;49.502;11.754;2023-05-02T06:46:42;11.23;;;9.77;;
21183;SDS011;18176;49.502;11.754;2023-05-02T06:50:42;11.67;;;9.63;;
21183;SDS011;18176;49.502;11.754;2023-05-02T06:54:45;11.10;;;9.05;;
21183;SDS011;18176;49.502;11.754;2023-05-02T06:58:46;9.73;;;8.73;;
21183;SDS011;18176;49.502;11.754;2023-05-02T07:02:47;12.07;;;8.90;;
21183;SDS011;18176;49.502;11.754;2023-05-02T07:06:48;11.77;;;9.20;;
21183;SDS011;18176;49.502;11.754;2023-05-02T07:10:51;11.95;;;9.30;;
21183;SDS011;18176;49.502;11.754;2023-05-02T07:14:51;13.27;;;10.20;;
21183;SDS011;18176;49.502;11.754;2023-05-02T07:18:51;12.00;;;9.85;;
21183;SDS011;18176;49.502;11.754;2023-05-02T07:22:52;12.48;;;9.10;;
21183;SDS011;18176;49.502;11.754;2023-05-02T07:26:55;12.45;;;9.75;;
21183;SDS011;18176;49.502;11.754;2023-05-02T07:30:55;13.70;;;9.77;;
21183;SDS011;18176;49.502;11.754;2023-05-02T07:34:55;12.80;;;9.98;;
21183;SDS011;18176;49.502;11.754;2023-05-02T07:38:56;12.98;;;9.82;;
21183;SDS011;18176;49.502;11.754;2023-05-02T07:42:59;13.73;;;9.68;;
21183;SDS011;18176;49.502;11.754;2023-05-02T07:46:59;10.38;;;8.63;;
21183;SDS011;18176;49.502;11.754;2023-05-02T07:51:09;13.15;;;8.57;;
21183;SDS011;18176;49.502;11.754;2023-05-02T07:55:09;12.20;;;8.90;;
21183;SDS011;18176;49.502;11.754;2023-05-02T07:59:13;10.35;;;8.80;;
21183;SDS011;18176;49.502;11.754;2023-05-02T08:03:13;13.27;;;9.68;;
21183;SDS011;18176;49.502;11.754;2023-05-02T08:07:14;13.57;;;10.47;;
21183;SDS011;18176;49.502;11.754;2023-05-02T08:11:14;16.67;;;10.60;;
21183;SDS011;18176;49.502;11.754;2023-05-02T08:15:20;15.27;;;11.80;;
21183;SDS011;18176;49.502;11.754;2023-05-02T08:19:20;16.53;;;12.40;;
21183;SDS011;18176;49.502;11.754;2023-05-02T08:23:21;21.23;;;12.97;;
21183;SDS011;18176;49.502;11.754;2023-05-02T08:27:21;17.63;;;13.50;;
21183;SDS011;18176;49.502;11.754;2023-05-02T08:31:24;19.70;;;15.23;;
21183;SDS011;18176;49.502;11.754;2023-05-02T08:35:24;20.00;;;13.70;;
21183;SDS011;18176;49.502;11.754;2023-05-02T08:39:26;18.80;;;13.60;;
21183;SDS011;18176;49.502;11.754;2023-05-02T08:43:31;18.70;;;13.63;;
21183;SDS011;18176;49.502;11.754;2023-05-02T08:47:34;16.10;;;12.30;;
21183;SDS011;18176;49.502;11.754;2023-05-02T08:51:37;18.13;;;13.67;;
21183;SDS011;18176;49.502;11.754;2023-05-02T08:55:39;18.83;;;13.23;;
21183;SDS011;18176;49.502;11.754;2023-05-02T08:59:41;15.70;;;12.97;;
21183;SDS011;18176;49.502;11.754;2023-05-02T09:03:45;17.60;;;13.10;;
21183;SDS011;18176;49.502;11.754;2023-05-02T09:07:50;18.83;;;13.60;;
21183;SDS011;18176;49.502;11.754;2023-05-02T09:11:50;16.70;;;13.30;;
21183;SDS011;18176;49.502;11.754;2023-05-02T09:15:55;17.00;;;14.40;;
21183;SDS011;18176;49.502;11.754;2023-05-02T09:20:03;21.43;;;15.17;;
21183;SDS011;18176;49.502;11.754;2023-05-02T09:24:13;17.83;;;14.47;;
21183;SDS011;18176;49.502;11.754;2023-05-02T09:28:15;18.20;;;13.60;;
21183;SDS011;18176;49.502;11.754;2023-05-02T09:32:15;15.67;;;13.37;;
21183;SDS011;18176;49.502;11.754;2023-05-02T09:36:18;13.20;;;11.53;;
21183;SDS011;18176;49.502;11.754;2023-05-02T09:40:20;15.93;;;11.73;;
21183;SDS011;18176;49.502;11.754;2023-05-02T09:44:24;13.18;;;10.77;;
21183;SDS011;18176;49.502;11.754;2023-05-02T09:48:50;15.05;;;11.00;;
21183;SDS011;18176;49.502;11.754;2023-05-02T09:53:02;10.30;;;8.93;;
21183;SDS011;18176;49.502;11.754;2023-05-02T09:57:03;9.18;;;8.23;;
21183;SDS011;18176;49.502;11.754;2023-05-02T10:01:06;12.35;;;8.02;;
21183;SDS011;18176;49.502;11.754;2023-05-02T10:05:13;9.77;;;7.80;;
21183;SDS011;18176;49.502;11.754;2023-05-02T10:09:16;9.43;;;8.07;;
21183;SDS011;18176;49.502;11.754;2023-05-02T10:13:20;11.40;;;8.32;;
21183;SDS011;18176;49.502;11.754;2023-05-02T10:17:27;11.55;;;9.15;;
21183;SDS011;18176;49.502;11.754;2023-05-02T10:21:32;10.95;;;8.35;;
21183;SDS011;18176;49.502;11.754;2023-05-02T10:25:37;9.40;;;7.60;;
21183;SDS011;18176;49.502;11.754;2023-05-02T10:29:38;8.73;;;7.28;;
21183;SDS011;18176;49.502;11.754;2023-05-02T10:33:40;8.80;;;7.10;;
21183;SDS011;18176;49.502;11.754;2023-05-02T10:37:41;8.32;;;6.55;;
21183;SDS011;18176;49.502;11.754;2023-05-02T10:41:46;11.27;;;8.65;;
21183;SDS011;18176;49.502;11.754;2023-05-02T10:45:47;9.43;;;8.15;;
21183;SDS011;18176;49.502;11.754;2023-05-02T10:49:51;10.90;;;8.57;;
21183;SDS011;18176;49.502;11.754;2023-05-02T10:53:54;9.40;;;8.40;;
21183;SDS011;18176;49.502;11.754;2023-05-02T10:58:23;9.10;;;7.07;;
21183;SDS011;18176;49.502;11.754;2023-05-02T11:15:57;8.02;;;6.78;;
21183;SDS011;18176;49.502;11.754;2023-05-02T11:24:35;8.02;;;7.10;;
21183;SDS011;18176;49.502;11.754;2023-05-02T11:28:39;7.72;;;6.43;;
21183;SDS011;18176;49.502;11.754;2023-05-02T11:37:15;9.68;;;7.45;;
21183;SDS011;18176;49.502;11.754;2023-05-02T11:41:16;7.72;;;6.80;;
21183;SDS011;18176;49.502;11.754;2023-05-02T11:45:16;8.48;;;7.53;;
21183;SDS011;18176;49.502;11.754;2023-05-02T11:49:20;6.53;;;5.90;;
21183;SDS011;18176;49.502;11.754;2023-05-02T11:53:21;7.72;;;6.93;;
21183;SDS011;18176;49.502;11.754;2023-05-02T11:57:25;7.07;;;6.47;;
21183;SDS011;18176;49.502;11.754;2023-05-02T12:01:25;7.95;;;7.15;;
21183;SDS011;18176;49.502;11.754;2023-05-02T12:05:29;7.32;;;6.60;;
21183;SDS011;18176;49.502;11.754;2023-05-02T12:09:29;5.57;;;4.78;;
21183;SDS011;18176;49.502;11.754;2023-05-02T12:13:29;6.90;;;5.18;;
21183;SDS011;18176;49.502;11.754;2023-05-02T12:17:29;6.57;;;5.88;;
21183;SDS011;18176;49.502;11.754;2023-05-02T12:21:33;5.72;;;5.22;;
21183;SDS011;18176;49.502;11.754;2023-05-02T12:25:36;7.00;;;5.53;;
21183;SDS011;18176;49.502;11.754;2023-05-02T12:29:38;6.03;;;5.50;;
21183;SDS011;18176;49.502;11.754;2023-05-02T12:33:44;6.80;;;5.82;;
21183;SDS011;18176;49.502;11.754;2023-05-02T12:37:51;5.95;;;5.07;;
21183;SDS011;18176;49.502;11.754;2023-05-02T12:41:51;6.75;;;5.85;;
21183;SDS011;18176;49.502;11.754;2023-05-02T12:50:10;7.15;;;5.38;;
21183;SDS011;18176;49.502;11.754;2023-05-02T12:54:21;6.10;;;5.20;;
21183;SDS011;18176;49.502;11.754;2023-05-02T12:58:22;5.28;;;4.82;;
21183;SDS011;18176;49.502;11.754;2023-05-02T13:02:24;5.80;;;5.13;;
21183;SDS011;18176;49.502;11.754;2023-05-02T13:06:24;5.72;;;4.97;;
21183;SDS011;18176;49.502;11.754;2023-05-02T13:10:27;4.53;;;4.13;;
21183;SDS011;18176;49.502;11.754;2023-05-02T13:14:28;5.30;;;4.80;;
21183;SDS011;18176;49.502;11.754;2023-05-02T13:18:28;6.60;;;5.22;;
21183;SDS011;18176;49.502;11.754;2023-05-02T13:22:29;5.38;;;4.20;;
21183;SDS011;18176;49.502;11.754;2023-05-02T13:26:32;4.70;;;3.90;;
21183;SDS011;18176;49.502;11.754;2023-05-02T13:30:32;3.95;;;3.38;;
21183;SDS011;18176;49.502;11.754;2023-05-02T13:34:32;7.88;;;3.70;;
21183;SDS011;18176;49.502;11.754;2023-05-02T13:38:33;5.25;;;4.10;;
21183;SDS011;18176;49.502;11.754;2023-05-02T13:42:36;6.97;;;4.60;;
21183;SDS011;18176;49.502;11.754;2023-05-02T13:46:36;7.70;;;5.40;;
21183;SDS011;18176;49.502;11.754;2023-05-02T13:50:36;13.32;;;6.32;;
21183;SDS011;18176;49.502;11.754;2023-05-02T13:54:37;10.23;;;6.60;;
21183;SDS011;18176;49.502;11.754;2023-05-02T13:58:40;10.90;;;6.70;;
21183;SDS011;18176;49.502;11.754;2023-05-02T14:02:41;7.77;;;6.23;;
21183;SDS011;18176;49.502;11.754;2023-05-02T14:06:43;4.93;;;4.33;;
21183;SDS011;18176;49.502;11.754;2023-05-02T14:10:44;6.83;;;3.60;;
21183;SDS011;18176;49.502;11.754;2023-05-02T14:14:47;3.70;;;3.00;;
21183;SDS011;18176;49.502;11.754;2023-05-02T14:18:47;4.30;;;3.50;;
21183;SDS011;18176;49.502;11.754;2023-05-02T14:22:47;5.37;;;3.40;;
21183;SDS011;18176;49.502;11.754;2023-05-02T14:26:48;5.13;;;3.40;;
21183;SDS011;18176;49.502;11.754;2023-05-02T14:30:51;6.27;;;3.70;;
21183;SDS011;18176;49.502;11.754;2023-05-02T14:34:51;4.57;;;3.00;;
21183;SDS011;18176;49.502;11.754;2023-05-02T14:38:51;5.60;;;2.90;;
21183;SDS011;18176;49.502;11.754;2023-05-02T14:42:51;5.63;;;3.03;;
21183;SDS011;18176;49.502;11.754;2023-05-02T14:46:55;3.63;;;3.20;;
21183;SDS011;18176;49.502;11.754;2023-05-02T14:50:56;3.80;;;3.35;;
21183;SDS011;18176;49.502;11.754;2023-05-02T14:54:57;3.88;;;3.30;;
21183;SDS011;18176;49.502;11.754;2023-05-02T14:58:58;3.67;;;3.05;;
21183;SDS011;18176;49.502;11.754;2023-05-02T15:03:01;2.15;;;1.95;;
21183;SDS011;18176;49.502;11.754;2023-05-02T15:07:03;3.28;;;2.20;;
21183;SDS011;18176;49.502;11.754;2023-05-02T15:11:04;3.53;;;2.15;;
21183;SDS011;18176;49.502;11.754;2023-05-02T15:15:05;2.75;;;1.98;;
21183;SDS011;18176;49.502;11.754;2023-05-02T15:19:10;5.72;;;3.80;;
21183;SDS011;18176;49.502;11.754;2023-05-02T15:23:10;7.57;;;4.55;;
21183;SDS011;18176;49.502;11.754;2023-05-02T15:27:10;3.95;;;3.50;;
21183;SDS011;18176;49.502;11.754;2023-05-02T15:31:11;5.20;;;4.10;;
21183;SDS011;18176;49.502;11.754;2023-05-02T15:35:16;3.58;;;3.28;;
21183;SDS011;18176;49.502;11.754;2023-05-02T15:39:18;4.20;;;3.03;;
21183;SDS011;18176;49.502;11.754;2023-05-02T15:43:23;5.43;;;2.92;;
21183;SDS011;18176;49.502;11.754;2023-05-02T15:47:25;2.50;;;2.30;;
21183;SDS011;18176;49.502;11.754;2023-05-02T15:51:30;2.85;;;2.22;;
21183;SDS011;18176;49.502;11.754;2023-05-02T15:55:31;2.17;;;1.77;;
21183;SDS011;18176;49.502;11.754;2023-05-02T15:59:32;2.40;;;2.20;;
21183;SDS011;18176;49.502;11.754;2023-05-02T16:03:32;4.82;;;3.25;;
21183;SDS011;18176;49.502;11.754;2023-05-02T16:07:35;3.88;;;3.03;;
21183;SDS011;18176;49.502;11.754;2023-05-02T16:11:36;3.33;;;2.75;;
21183;SDS011;18176;49.502;11.754;2023-05-02T16:15:36;4.28;;;3.25;;
21183;SDS011;18176;49.502;11.754;2023-05-02T16:19:38;5.25;;;4.18;;
21183;SDS011;18176;49.502;11.754;2023-05-02T16:23:41;5.20;;;3.85;;
21183;SDS011;18176;49.502;11.754;2023-05-02T16:27:41;4.50;;;4.05;;
21183;SDS011;18176;49.502;11.754;2023-05-02T16:31:42;3.75;;;3.35;;
21183;SDS011;18176;49.502;11.754;2023-05-02T16:35:42;4.65;;;3.40;;
21183;SDS011;18176;49.502;11.754;2023-05-02T16:39:45;5.57;;;3.30;;
21183;SDS011;18176;49.502;11.754;2023-05-02T16:43:46;4.25;;;3.60;;
21183;SDS011;18176;49.502;11.754;2023-05-02T16:47:47;4.18;;;3.60;;
21183;SDS011;18176;49.502;11.754;2023-05-02T16:51:48;5.40;;;4.32;;
21183;SDS011;18176;49.502;11.754;2023-05-02T16:55:53;4.35;;;3.42;;
21183;SDS011;18176;49.502;11.754;2023-05-02T16:59:55;4.68;;;3.55;;
21183;SDS011;18176;49.502;11.754;2023-05-02T17:03:56;4.40;;;3.65;;
21183;SDS011;18176;49.502;11.754;2023-05-02T17:07:57;4.15;;;3.28;;
21183;SDS011;18176;49.502;11.754;2023-05-02T17:12:01;4.43;;;3.00;;
21183;SDS011;18176;49.502;11.754;2023-05-02T17:16:01;2.92;;;2.63;;
21183;SDS011;18176;49.502;11.754;2023-05-02T17:20:04;3.28;;;2.97;;
21183;SDS011;18176;49.502;11.754;2023-05-02T17:24:06;5.22;;;4.28;;
21183;SDS011;18176;49.502;11.754;2023-05-02T17:28:10;3.90;;;3.50;;
21183;SDS011;18176;49.502;11.754;2023-05-02T17:32:10;4.65;;;3.53;;
21183;SDS011;18176;49.502;11.754;2023-05-02T17:36:11;3.90;;;3.55;;
21183;SDS011;18176;49.502;11.754;2023-05-02T17:40:12;4.93;;;4.30;;
21183;SDS011;18176;49.502;11.754;2023-05-02T17:44:15;5.00;;;4.45;;
21183;SDS011;18176;49.502;11.754;2023-05-02T17:48:16;6.57;;;5.00;;
21183;SDS011;18176;49.502;11.754;2023-05-02T17:52:16;7.07;;;4.70;;
21183;SDS011;18176;49.502;11.754;2023-05-02T17:56:17;6.20;;;4.80;;
21183;SDS011;18176;49.502;11.754;2023-05-02T18:00:21;8.30;;;5.70;;
21183;SDS011;18176;49.502;11.754;2023-05-02T18:04:22;7.72;;;5.03;;
21183;SDS011;18176;49.502;11.754;2023-05-02T18:08:22;5.60;;;5.03;;
21183;SDS011;18176;49.502;11.754;2023-05-02T18:12:23;8.85;;;6.00;;
21183;SDS011;18176;49.502;11.754;2023-05-02T18:16:26;7.20;;;5.18;;
21183;SDS011;18176;49.502;11.754;2023-05-02T18:20:27;6.90;;;5.40;;
21183;SDS011;18176;49.502;11.754;2023-05-02T18:24:27;7.80;;;5.75;;
21183;SDS011;18176;49.502;11.754;2023-05-02T18:28:29;7.88;;;5.80;;
21183;SDS011;18176;49.502;11.754;2023-05-02T18:32:35;7.05;;;5.28;;
21183;SDS011;18176;49.502;11.754;2023-05-02T18:36:36;7.93;;;5.50;;
21183;SDS011;18176;49.502;11.754;2023-05-02T18:40:36;6.40;;;5.43;;
21183;SDS011;18176;49.502;11.754;2023-05-02T18:44:37;9.70;;;6.00;;
21183;SDS011;18176;49.502;11.754;2023-05-02T18:48:40;7.33;;;5.43;;
21183;SDS011;18176;49.502;11.754;2023-05-02T18:52:41;9.67;;;6.00;;
21183;SDS011;18176;49.502;11.754;2023-05-02T18:56:42;10.67;;;6.70;;
21183;SDS011;18176;49.502;11.754;2023-05-02T19:00:45;7.43;;;6.10;;
21183;SDS011;18176;49.502;11.754;2023-05-02T19:04:48;8.30;;;5.87;;
21183;SDS011;18176;49.502;11.754;2023-05-02T19:08:49;8.17;;;5.30;;
21183;SDS011;18176;49.502;11.754;2023-05-02T19:12:49;9.60;;;5.97;;
21183;SDS011;18176;49.502;11.754;2023-05-02T19:16:56;8.93;;;6.23;;
21183;SDS011;18176;49.502;11.754;2023-05-02T19:21:16;7.90;;;6.33;;
21183;SDS011;18176;49.502;11.754;2023-05-02T19:25:25;7.37;;;6.00;;
21183;SDS011;18176;49.502;11.754;2023-05-02T19:29:28;7.77;;;6.40;;
21183;SDS011;18176;49.502;11.754;2023-05-02T19:33:29;9.47;;;6.80;;
21183;SDS011;18176;49.502;11.754;2023-05-02T19:37:40;8.73;;;6.53;;
21183;SDS011;18176;49.502;11.754;2023-05-02T19:41:47;11.37;;;6.93;;
21183;SDS011;18176;49.502;11.754;2023-05-02T19:45:50;8.27;;;6.40;;
21183;SDS011;18176;49.502;11.754;2023-05-02T19:49:54;9.43;;;6.87;;
21183;SDS011;18176;49.502;11.754;2023-05-02T19:53:57;8.10;;;6.63;;
21183;SDS011;18176;49.502;11.754;2023-05-02T19:57:58;8.30;;;6.10;;
21183;SDS011;18176;49.502;11.754;2023-05-02T20:01:59;7.80;;;5.77;;
21183;SDS011;18176;49.502;11.754;2023-05-02T20:06:00;7.93;;;5.77;;
21183;SDS011;18176;49.502;11.754;2023-05-02T20:10:04;9.30;;;6.03;;
21183;SDS011;18176;49.502;11.754;2023-05-02T20:14:07;9.00;;;6.07;;
21183;SDS011;18176;49.502;11.754;2023-05-02T20:18:08;10.47;;;7.37;;
21183;SDS011;18176;49.502;11.754;2023-05-02T20:22:08;8.50;;;6.17;;
21183;SDS011;18176;49.502;11.754;2023-05-02T20:26:12;8.17;;;5.50;;
21183;SDS011;18176;49.502;11.754;2023-05-02T20:30:13;15.63;;;11.17;;
21183;SDS011;18176;49.502;11.754;2023-05-02T20:34:13;66.67;;;32.97;;
21183;SDS011;18176;49.502;11.754;2023-05-02T20:38:14;15.80;;;9.37;;
21183;SDS011;18176;49.502;11.754;2023-05-02T20:42:18;8.50;;;5.83;;
21183;SDS011;18176;49.502;11.754;2023-05-02T20:46:21;9.70;;;5.57;;
21183;SDS011;18176;49.502;11.754;2023-05-02T20:50:22;7.43;;;5.10;;
21183;SDS011;18176;49.502;11.754;2023-05-02T20:54:22;9.60;;;5.00;;
21183;SDS011;18176;49.502;11.754;2023-05-02T20:58:25;11.63;;;7.00;;
21183;SDS011;18176;49.502;11.754;2023-05-02T21:02:26;6.93;;;4.63;;
21183;SDS011;18176;49.502;11.754;2023-05-02T21:06:27;6.30;;;4.50;;
21183;SDS011;18176;49.502;11.754;2023-05-02T21:10:28;6.87;;;4.40;;
21183;SDS011;18176;49.502;11.754;2023-05-02T21:14:31;4.17;;;3.77;;
21183;SDS011;18176;49.502;11.754;2023-05-02T21:18:32;5.20;;;4.03;;
21183;SDS011;18176;49.502;11.754;2023-05-02T21:22:33;6.63;;;4.63;;
21183;SDS011;18176;49.502;11.754;2023-05-02T21:26:33;4.90;;;4.20;;
21183;SDS011;18176;49.502;11.754;2023-05-02T21:30:37;5.43;;;3.97;;
21183;SDS011;18176;49.502;11.754;2023-05-02T21:34:38;7.20;;;5.00;;
21183;SDS011;18176;49.502;11.754;2023-05-02T21:38:39;6.17;;;4.50;;
21183;SDS011;18176;49.502;11.754;2023-05-02T21:42:41;8.27;;;4.50;;
21183;SDS011;18176;49.502;11.754;2023-05-02T21:46:44;5.10;;;4.23;;
21183;SDS011;18176;49.502;11.754;2023-05-02T21:50:46;5.70;;;4.63;;
21183;SDS011;18176;49.502;11.754;2023-05-02T21:54:46;6.27;;;4.40;;
21183;SDS011;18176;49.502;11.754;2023-05-02T21:58:48;5.13;;;4.17;;
21183;SDS011;18176;49.502;11.754;2023-05-02T22:02:50;4.33;;;3.93;;
21183;SDS011;18176;49.502;11.754;2023-05-02T22:06:51;5.37;;;4.33;;
21183;SDS011;18176;49.502;11.754;2023-05-02T22:10:51;9.00;;;5.33;;
21183;SDS011;18176;49.502;11.754;2023-05-02T22:14:51;6.30;;;5.30;;
21183;SDS011;18176;49.502;11.754;2023-05-02T22:18:54;6.30;;;4.20;;
21183;SDS011;18176;49.502;11.754;2023-05-02T22:22:55;4.87;;;4.10;;
21183;SDS011;18176;49.502;11.754;2023-05-02T22:26:56;7.27;;;5.00;;
21183;SDS011;18176;49.502;11.754;2023-05-02T22:30:56;6.40;;;5.07;;
21183;SDS011;18176;49.502;11.754;2023-05-02T22:34:59;8.07;;;5.27;;
21183;SDS011;18176;49.502;11.754;2023-05-02T22:38:59;5.43;;;4.83;;
21183;SDS011;18176;49.502;11.754;2023-05-02T22:43:00;5.23;;;4.70;;
21183;SDS011;18176;49.502;11.754;2023-05-02T22:47:01;6.83;;;5.00;;
21183;SDS011;18176;49.502;11.754;2023-05-02T22:51:04;12.17;;;4.73;;
21183;SDS011;18176;49.502;11.754;2023-05-02T22:55:05;6.63;;;4.97;;
21183;SDS011;18176;49.502;11.754;2023-05-02T22:59:07;6.17;;;4.47;;
21183;SDS011;18176;49.502;11.754;2023-05-02T23:03:08;6.60;;;5.10;;
21183;SDS011;18176;49.502;11.754;2023-05-02T23:07:11;6.37;;;5.03;;
21183;SDS011;18176;49.502;11.754;2023-05-02T23:11:11;7.97;;;5.50;;
21183;SDS011;18176;49.502;11.754;2023-05-02T23:15:12;6.93;;;5.83;;
21183;SDS011;18176;49.502;11.754;2023-05-02T23:19:13;8.77;;;5.80;;
21183;SDS011;18176;49.502;11.754;2023-05-02T23:23:16;8.27;;;6.27;;
21183;SDS011;18176;49.502;11.754;2023-05-02T23:27:16;9.50;;;6.83;;
21183;SDS011;18176;49.502;11.754;2023-05-02T23:31:17;8.93;;;6.50;;
21183;SDS011;18176;49.502;11.754;2023-05-02T23:35:17;8.60;;;6.23;;
21183;SDS011;18176;49.502;11.754;2023-05-02T23:39:21;8.00;;;6.50;;
21183;SDS011;18176;49.502;11.754;2023-05-02T23:43:22;7.87;;;5.83;;
21183;SDS011;18176;49.502;11.754;2023-05-02T23:47:22;9.00;;;6.13;;
21183;SDS011;18176;49.502;11.754;2023-05-02T23:51:23;10.67;;;6.60;;
21183;SDS011;18176;49.502;11.754;2023-05-02T23:55:27;8.87;;;6.57;;
21183;SDS011;18176;49.502;11.754;2023-05-02T23:59:27;12.57;;;7.30;;
